Bridport Emma Saint, Tasmania

8:42 AM AEST on July 26, 2016 (GMT +1000)
Launceston | | Change Station

Elev 561 ft 41.55 °S, 147.21 °E | Updated 12 minutes ago

Clear
Clear
39 °F
Feels Like 30 °F
N
17
Wind Variable Wind from NNW

Today
High -- | Low -- °F
--% Chance of Precip.
Yesterday
High -- | Low -- °F
Precip. -- in
Pressure 29.56 in
Visibility 6.2 miles
Clouds
Windchill 30 °F
Dew Point 32 °F
Humidity 75%
Rainfall 0.00 in
Snow Depth Not available.
7:23 AM 5:10 PM
Waning Gibbous, 61% visible
METAR YMLT 252230Z AUTO 33015KT 9999 // NCD 04/00 Q1001
Pressure 29.56 in
Visibility 6.2 miles
Clouds
Windchill 30 °F
Dew Point 32 °F
Humidity 75%
Rainfall 0.00 in
Snow Depth Not available.
7:23 AM 5:10 PM
Waning Gibbous, 61% visible
METAR YMLT 252230Z AUTO 33015KT 9999 // NCD 04/00 Q1001

10-Day Weather Forecast

No radar image for this location.
×

Almanac

Astronomy

Jul. 26, 2016 Rise Set
Actual Time
Civil Twilight
Nautical Twilight
Astronomical Twilight
Moon
Length of Visible Light
Length of Day
Tomorrow will be .
, % of the Moon is Illuminated

Today's Extremes

Country Highs Country Lows

Community

WunderPhotos

Upload Photos

1,927,436 photos uploaded!

WunderBlog® & News

Nearby

Air Quality

  Air Quality AQ Index Pollutant
Not available.

Snow Depth

Station Depth Elevation

Earthquake Activity

City Distance Mag. Time & Date
Minimum magnitude displayed is 2.5.

Coastal Water Temperatures

Place Temperature

Stations

Nearby Weather Stations

Station Location Temp. Windchill Dew Point Humidity Wind Precip. Elev Updated Type